Terminal Aerodrome Forecast
Issued by NWS

Home | Current Version | Previous Version | Graphics & Text | Print | Product List | Glossary On
Versions: 1 2 3 4 5 6 7 8 9 10 11 12 13 14 15 16 17 18 19 20
000
FTUS43 KICT 210830 AAA
TAFRSL
TAF AMD
KRSL 210830Z 2109/2206 19009KT 3SM BR SCT002
      TEMPO 2109/2113 1/2SM FG OVC002
     FM211300 18008KT 1SM BR OVC002
     FM211700 19013KT 5SM BR BKN008
     FM211900 19015G20KT P6SM BKN012=

USA.gov is the U.S. government's official web portal to all federal, state and local government web resources and services.